createdAt,value
2019-02-24T00:01:02.120Z,96149.94
2019-02-24T00:03:31.212Z,96149.57
2019-02-24T00:06:00.010Z,96138.84
2019-02-24T00:08:29.002Z,96139.27
2019-02-24T00:10:57.727Z,96142.43
2019-02-24T00:13:26.469Z,96147.17
2019-02-24T00:15:55.266Z,96142.25
2019-02-24T00:18:25.506Z,96141.72
2019-02-24T00:20:54.291Z,96146.60
2019-02-24T00:23:22.961Z,96143.33
2019-02-24T00:25:51.953Z,96149.03
2019-02-24T00:28:20.754Z,96147.20
2019-02-24T00:30:49.531Z,96142.56
2019-02-24T00:33:18.233Z,96145.02
2019-02-24T00:35:49.569Z,96142.78
2019-02-24T00:38:18.263Z,96143.22
2019-02-24T00:40:46.875Z,96142.86
2019-02-24T00:43:15.627Z,96136.15
2019-02-24T00:45:44.729Z,96142.40
2019-02-24T00:48:13.508Z,96143.22
2019-02-24T00:50:42.532Z,96154.42
2019-02-24T00:53:12.829Z,96154.28
2019-02-24T00:55:41.521Z,96150.70
2019-02-24T00:58:16.002Z,96152.72
2019-02-24T01:00:42.267Z,96147.45
2019-02-24T01:03:11.061Z,96141.88
2019-02-24T01:05:39.834Z,96147.61
2019-02-24T01:08:08.906Z,96153.45
2019-02-24T01:10:37.638Z,96156.41
2019-02-24T01:13:07.891Z,96156.72
2019-02-24T01:15:36.563Z,96160.15
2019-02-24T01:18:05.235Z,96157.46
2019-02-24T01:20:33.909Z,96161.41
2019-02-24T01:23:02.693Z,96158.62
2019-02-24T01:25:31.390Z,96153.32
2019-02-24T01:28:00.020Z,96148.17
2019-02-24T01:30:29.213Z,96142.77
2019-02-24T01:33:00.622Z,96142.95
2019-02-24T01:35:29.285Z,96142.88
2019-02-24T01:37:57.991Z,96137.81
2019-02-24T01:40:28.176Z,96135.95
2019-02-24T01:42:56.911Z,96130.13
2019-02-24T01:45:25.689Z,96130.31
2019-02-24T01:47:54.385Z,96132.85
2019-02-24T01:50:24.599Z,96129.64
2019-02-24T01:52:53.291Z,96131.76
2019-02-24T01:55:22.042Z,96138.44
2019-02-24T01:57:50.711Z,96144.45
2019-02-24T02:00:19.955Z,96145.59
2019-02-24T02:02:50.185Z,96146.12
2019-02-24T02:05:20.576Z,96139.97
2019-02-24T02:07:49.235Z,96130.47
2019-02-24T02:10:17.878Z,96140.89
2019-02-24T02:12:46.668Z,96145.82
2019-02-24T02:15:15.349Z,96140.60
2019-02-24T02:17:45.301Z,96149.14
2019-02-24T02:20:14.067Z,96141.84
2019-02-24T02:22:42.845Z,96145.81
2019-02-24T02:25:11.658Z,96149.31
2019-02-24T02:27:40.422Z,96139.93
2019-02-24T02:30:10.988Z,96142.91
2019-02-24T02:32:39.641Z,96144.25
2019-02-24T02:35:08.836Z,96133.52
2019-02-24T02:37:37.634Z,96132.28
2019-02-24T02:40:08.276Z,96133.40
2019-02-24T02:42:36.950Z,96121.39
2019-02-24T02:45:08.248Z,96119.09
2019-02-24T02:47:36.999Z,96130.27
2019-02-24T02:50:06.478Z,96124.08
2019-02-24T02:52:35.231Z,96122.82
2019-02-24T02:55:04.471Z,96118.73
2019-02-24T02:57:33.176Z,96122.82
2019-02-24T03:00:02.047Z,96121.39
2019-02-24T03:02:30.775Z,96126.09
2019-02-24T03:04:59.424Z,96115.35
2019-02-24T03:07:32.721Z,96113.94
2019-02-24T03:10:02.834Z,96113.58
2019-02-24T03:12:31.609Z,96108.38
2019-02-24T03:15:00.722Z,96110.45
2019-02-24T03:17:29.678Z,96107.19
2019-02-24T03:19:58.402Z,96107.63
2019-02-24T03:22:27.198Z,96100.77
2019-02-24T03:24:55.992Z,96103.45
2019-02-24T03:27:25.545Z,96100.69
2019-02-24T03:29:54.276Z,96098.31
2019-02-24T03:32:22.959Z,96103.30
2019-02-24T03:34:51.748Z,96094.58
2019-02-24T03:37:20.436Z,96093.19
2019-02-24T03:39:49.150Z,96102.48
2019-02-24T03:42:17.910Z,96105.84
2019-02-24T03:44:46.923Z,96111.13
2019-02-24T03:47:15.902Z,96101.23
2019-02-24T03:49:44.710Z,96106.22
2019-02-24T03:52:13.401Z,96110.52
2019-02-24T03:54:43.619Z,96115.08
2019-02-24T03:57:12.379Z,96112.36
2019-02-24T03:59:42.507Z,96112.98
2019-02-24T04:02:11.290Z,96117.54
2019-02-24T04:04:39.975Z,96120.14
2019-02-24T04:07:09.235Z,96123.26
2019-02-24T04:09:38.796Z,96122.72
2019-02-24T04:12:07.470Z,96112.97
2019-02-24T04:14:36.160Z,96102.25
2019-02-24T04:17:04.842Z,96093.33
2019-02-24T04:19:34.452Z,96090.58
2019-02-24T04:22:03.133Z,96093.98
2019-02-24T04:24:31.863Z,96097.03
2019-02-24T04:27:00.622Z,96090.91
2019-02-24T04:29:31.339Z,96087.73
2019-02-24T04:31:59.933Z,96090.69
2019-02-24T04:34:28.633Z,96094.12
2019-02-24T04:36:58.678Z,96113.34
2019-02-24T04:39:29.846Z,96118.89
2019-02-24T04:41:58.727Z,96114.81
2019-02-24T04:44:27.563Z,96135.98
2019-02-24T04:46:59.474Z,96135.46
2019-02-24T04:49:28.210Z,96146.08
2019-02-24T04:52:04.287Z,96137.08
2019-02-24T04:54:33.058Z,96130.52
2019-02-24T04:57:03.424Z,96125.90
2019-02-24T04:59:34.981Z,96123.95
2019-02-24T05:02:02.593Z,96116.63
2019-02-24T05:04:31.218Z,96118.89
2019-02-24T05:07:01.830Z,96119.78
2019-02-24T05:09:30.502Z,96122.37
2019-02-24T05:12:02.141Z,96122.69
2019-02-24T05:14:30.853Z,96124.44
2019-02-24T05:17:02.819Z,96128.16
2019-02-24T05:19:31.460Z,96130.38
2019-02-24T05:22:01.819Z,96128.73
2019-02-24T05:24:31.695Z,96132.16
2019-02-24T05:27:00.413Z,96137.48
2019-02-24T05:29:30.377Z,96133.80
2019-02-24T05:32:01.892Z,96134.95
2019-02-24T05:34:32.131Z,96138.31
2019-02-24T05:37:09.600Z,96132.94
2019-02-24T05:39:38.437Z,96129.22
2019-02-24T05:42:07.197Z,96141.55
2019-02-24T05:44:35.862Z,96140.53
2019-02-24T05:47:05.883Z,96129.41
2019-02-24T05:49:34.576Z,96128.18
2019-02-24T05:52:03.256Z,96125.30
2019-02-24T05:54:31.944Z,96129.47
2019-02-24T05:57:00.731Z,96120.67
2019-02-24T05:59:29.412Z,96121.27
2019-02-24T06:01:58.020Z,96125.35
2019-02-24T06:04:26.890Z,96124.55
2019-02-24T06:06:55.577Z,96126.75
2019-02-24T06:09:24.261Z,96137.88
2019-02-24T06:11:55.440Z,96139.66
2019-02-24T06:14:26.459Z,96143.11
2019-02-24T06:16:55.153Z,96146.79
2019-02-24T06:19:25.765Z,96148.44
2019-02-24T06:21:54.497Z,96127.56
2019-02-24T06:24:23.469Z,96151.59
2019-02-24T06:26:52.259Z,96152.58
2019-02-24T06:29:20.927Z,96152.39
2019-02-24T06:31:49.715Z,96146.06
2019-02-24T06:34:18.534Z,96157.60
2019-02-24T06:36:47.334Z,96158.09
2019-02-24T06:39:16.101Z,96168.61
2019-02-24T06:41:44.977Z,96170.56
2019-02-24T06:44:13.665Z,96174.52
2019-02-24T06:46:42.356Z,96180.78
2019-02-24T06:49:11.042Z,96173.48
2019-02-24T06:51:39.830Z,96178.41
2019-02-24T06:54:08.504Z,96180.52
2019-02-24T06:56:37.285Z,96177.26
2019-02-24T06:59:06.286Z,96178.84
2019-02-24T07:01:35.297Z,96180.41
2019-02-24T07:04:04.279Z,96182.48
2019-02-24T07:06:32.966Z,96182.81
2019-02-24T07:09:01.752Z,96173.64
2019-02-24T07:11:30.378Z,96172.58
2019-02-24T07:13:59.730Z,96175.84
2019-02-24T07:16:28.338Z,96172.30
2019-02-24T07:18:57.336Z,96167.41
2019-02-24T07:21:25.999Z,96167.48
2019-02-24T07:23:54.807Z,96167.86
2019-02-24T07:26:24.225Z,96165.45
2019-02-24T07:28:52.843Z,96171.59
2019-02-24T07:31:21.563Z,96166.56
2019-02-24T07:33:50.251Z,96157.16
2019-02-24T07:36:19.040Z,96153.77
2019-02-24T07:38:48.187Z,96151.95
2019-02-24T07:41:17.029Z,96149.12
2019-02-24T07:43:45.815Z,96135.64
2019-02-24T07:46:14.497Z,96131.41
2019-02-24T07:48:43.803Z,96136.87
2019-02-24T07:51:13.100Z,96140.47
2019-02-24T07:53:41.903Z,96126.96
2019-02-24T07:56:10.685Z,96132.70
2019-02-24T07:58:39.480Z,96132.94
2019-02-24T08:01:08.264Z,96131.26
2019-02-24T08:03:36.954Z,96119.14
2019-02-24T08:06:06.053Z,96120.09
2019-02-24T08:08:34.841Z,96120.66
2019-02-24T08:11:03.847Z,96119.16
2019-02-24T08:13:32.617Z,96103.92
2019-02-24T08:16:01.425Z,96093.83
2019-02-24T08:18:30.047Z,96087.88
2019-02-24T08:20:58.831Z,96078.62
2019-02-24T08:23:27.768Z,96060.02
2019-02-24T08:25:56.665Z,96068.33
2019-02-24T08:28:26.469Z,96083.06
2019-02-24T08:30:55.174Z,96083.14
2019-02-24T08:33:24.050Z,96102.12
2019-02-24T08:35:53.054Z,96116.08
2019-02-24T08:38:22.064Z,96106.97
2019-02-24T08:40:50.737Z,96103.98
2019-02-24T08:43:19.515Z,96111.54
2019-02-24T08:45:48.305Z,96106.26
2019-02-24T08:48:19.163Z,96110.90
2019-02-24T08:50:49.264Z,96110.03
2019-02-24T08:53:17.939Z,96102.44
2019-02-24T08:55:47.016Z,96102.63
2019-02-24T08:58:18.282Z,96097.03
2019-02-24T09:00:51.354Z,96093.56
2019-02-24T09:03:20.286Z,96084.26
2019-02-24T09:05:50.596Z,96086.00
2019-02-24T09:08:23.887Z,96077.80
2019-02-24T09:10:52.588Z,96073.53
2019-02-24T09:13:23.083Z,96062.24
2019-02-24T09:15:53.371Z,96060.13
2019-02-24T09:18:22.422Z,96070.13
2019-02-24T09:20:51.621Z,96075.91
2019-02-24T09:23:20.505Z,96082.77
2019-02-24T09:25:49.134Z,96088.91
2019-02-24T09:28:20.854Z,96087.42
2019-02-24T09:30:50.055Z,96076.59
2019-02-24T09:33:36.136Z,96086.77
2019-02-24T09:36:06.886Z,96079.44
2019-02-24T09:38:37.004Z,96074.70
2019-02-24T09:41:10.090Z,96075.27
2019-02-24T09:44:08.412Z,96071.55
2019-02-24T09:46:16.167Z,96072.31
2019-02-24T09:48:45.682Z,96074.35
2019-02-24T09:51:29.428Z,96083.63
2019-02-24T09:54:00.671Z,96083.23
2019-02-24T09:56:53.018Z,96079.23
2019-02-24T09:59:22.541Z,96078.00
2019-02-24T10:01:51.745Z,96066.17
2019-02-24T10:04:21.010Z,96060.50
2019-02-24T10:06:50.940Z,96072.19
2019-02-24T10:09:19.812Z,96065.54
2019-02-24T10:11:50.347Z,96060.81
2019-02-24T10:14:20.538Z,96062.14
2019-02-24T10:16:49.247Z,96060.77
2019-02-24T10:19:17.971Z,96055.55
2019-02-24T10:21:46.637Z,96050.84
2019-02-24T10:24:15.305Z,96048.86
2019-02-24T10:26:45.487Z,96050.10
2019-02-24T10:29:15.918Z,96045.44
2019-02-24T10:31:45.137Z,96038.70
2019-02-24T10:34:15.648Z,96039.03
2019-02-24T10:36:45.703Z,96041.09
2019-02-24T10:39:16.140Z,96052.61
2019-02-24T10:41:47.374Z,96052.45
2019-02-24T10:44:19.240Z,96054.50
2019-02-24T10:46:48.391Z,96053.23
2019-02-24T10:49:19.441Z,96056.28
2019-02-24T10:51:48.424Z,96057.16
2019-02-24T10:54:20.276Z,96058.81
2019-02-24T10:56:51.363Z,96047.41
2019-02-24T10:59:21.165Z,96042.20
2019-02-24T11:01:49.972Z,96038.47
2019-02-24T11:04:31.764Z,96035.46
2019-02-24T11:07:01.783Z,96019.08
2019-02-24T11:09:32.001Z,96021.65
2019-02-24T11:12:00.855Z,96015.09
2019-02-24T11:14:29.695Z,96005.42
2019-02-24T11:16:58.582Z,96004.05
2019-02-24T11:19:27.586Z,95995.88
2019-02-24T11:21:56.359Z,95999.88
2019-02-24T11:24:28.089Z,96009.29
2019-02-24T11:26:56.767Z,96012.11
2019-02-24T11:29:25.623Z,96018.06
2019-02-24T11:31:54.404Z,96021.56
2019-02-24T11:34:23.181Z,96023.55
2019-02-24T11:36:53.701Z,96017.46
2019-02-24T11:39:22.452Z,96024.10
2019-02-24T11:41:51.200Z,96019.46
2019-02-24T11:44:19.974Z,96021.27
2019-02-24T11:46:48.705Z,96018.01
2019-02-24T11:49:19.402Z,96024.14
2019-02-24T11:51:49.511Z,96013.46
2019-02-24T11:54:18.451Z,96014.03
2019-02-24T11:56:50.369Z,96012.11
2019-02-24T11:59:19.052Z,96000.19
2019-02-24T12:01:47.983Z,96006.83
2019-02-24T12:04:19.479Z,95998.12
2019-02-24T12:06:48.725Z,95989.86
2019-02-24T12:09:17.601Z,95988.03
2019-02-24T12:11:47.831Z,95984.29
2019-02-24T12:14:16.768Z,95980.29
2019-02-24T12:16:47.329Z,95970.06
2019-02-24T12:19:16.442Z,95967.56
2019-02-24T12:21:45.225Z,95957.58
2019-02-24T12:24:16.083Z,95948.83
2019-02-24T12:26:44.853Z,95947.86
2019-02-24T12:29:14.245Z,95936.56
2019-02-24T12:31:43.160Z,95940.05
2019-02-24T12:34:11.928Z,95943.20
2019-02-24T12:36:43.723Z,95942.66
2019-02-24T12:39:15.557Z,95935.20
2019-02-24T12:41:44.447Z,95934.07
2019-02-24T12:44:13.327Z,95937.93
2019-02-24T12:46:44.879Z,95932.86
2019-02-24T12:49:13.755Z,95936.03
2019-02-24T12:51:42.867Z,95942.05
2019-02-24T12:54:11.777Z,95942.39
2019-02-24T12:56:41.834Z,95942.48
2019-02-24T12:59:14.678Z,95944.56
2019-02-24T13:01:44.293Z,95957.84
2019-02-24T13:04:14.901Z,95947.73
2019-02-24T13:06:43.890Z,95947.45
2019-02-24T13:09:12.903Z,95948.48
2019-02-24T13:11:43.126Z,95950.30
2019-02-24T13:14:15.744Z,95941.84
2019-02-24T13:16:44.796Z,95937.90
2019-02-24T13:19:15.147Z,95924.69
2019-02-24T13:21:44.008Z,95929.86
2019-02-24T13:24:15.547Z,95922.17
2019-02-24T13:26:44.236Z,95923.75
2019-02-24T13:29:15.061Z,95918.65
2019-02-24T13:31:46.427Z,95915.66
2019-02-24T13:34:17.973Z,95912.44
2019-02-24T13:36:46.670Z,95909.72
2019-02-24T13:39:15.356Z,95903.70
2019-02-24T13:41:44.179Z,95902.33
2019-02-24T13:44:17.123Z,95898.13
2019-02-24T13:46:45.915Z,95901.23
2019-02-24T13:49:22.098Z,95893.98
2019-02-24T13:51:50.975Z,95894.38
2019-02-24T13:54:21.205Z,95889.03
2019-02-24T13:56:57.452Z,95891.69
2019-02-24T13:59:26.137Z,95894.66
2019-02-24T14:01:54.941Z,95895.42
2019-02-24T14:04:25.553Z,95905.55
2019-02-24T14:06:55.471Z,95899.75
2019-02-24T14:09:24.266Z,95901.05
2019-02-24T14:11:53.060Z,95909.75
2019-02-24T14:14:23.185Z,95908.46
2019-02-24T14:16:51.996Z,95898.98
2019-02-24T14:19:20.850Z,95893.77
2019-02-24T14:21:53.991Z,95893.39
2019-02-24T14:24:23.031Z,95893.33
2019-02-24T14:26:51.743Z,95905.63
2019-02-24T14:29:20.725Z,95896.02
2019-02-24T14:31:53.698Z,95906.92
2019-02-24T14:34:23.114Z,95907.75
2019-02-24T14:36:52.029Z,95912.08
2019-02-24T14:39:22.301Z,95909.81
2019-02-24T14:41:54.182Z,95909.84
2019-02-24T14:44:24.641Z,95911.38
2019-02-24T14:46:53.720Z,95915.24
2019-02-24T14:49:24.340Z,95911.76
2019-02-24T14:51:56.098Z,95925.08
2019-02-24T14:54:25.783Z,95922.14
2019-02-24T14:56:58.487Z,95934.27
2019-02-24T14:59:27.929Z,95930.92
2019-02-24T15:01:56.879Z,95930.73
2019-02-24T15:04:27.128Z,95931.91
2019-02-24T15:06:55.907Z,95928.30
2019-02-24T15:09:24.996Z,95926.39
2019-02-24T15:11:53.935Z,95920.84
2019-02-24T15:14:24.445Z,95927.55
2019-02-24T15:16:53.707Z,95931.27
2019-02-24T15:19:22.605Z,95939.02
2019-02-24T15:21:53.240Z,95938.06
2019-02-24T15:24:22.528Z,95939.36
2019-02-24T15:26:53.696Z,95943.34
2019-02-24T15:29:23.653Z,95944.52
2019-02-24T15:31:52.555Z,95944.17
2019-02-24T15:34:21.308Z,95951.23
2019-02-24T15:36:51.041Z,95945.19
2019-02-24T15:39:20.260Z,95928.46
2019-02-24T15:41:49.583Z,95928.59
2019-02-24T15:44:18.409Z,95924.73
2019-02-24T15:46:47.391Z,95926.70
2019-02-24T15:49:17.735Z,95940.09
2019-02-24T15:51:46.724Z,95948.31
2019-02-24T15:54:17.339Z,95952.75
2019-02-24T15:56:49.280Z,95950.19
2019-02-24T15:59:19.856Z,95954.34
2019-02-24T16:01:49.962Z,95958.55
2019-02-24T16:04:19.058Z,95970.00
2019-02-24T16:06:47.843Z,95963.57
2019-02-24T16:09:19.885Z,95969.95
2019-02-24T16:11:48.671Z,95973.74
2019-02-24T16:14:18.328Z,95980.10
2019-02-24T16:16:47.065Z,95978.42
2019-02-24T16:19:16.164Z,95982.87
2019-02-24T16:21:46.313Z,95991.34
2019-02-24T16:24:15.334Z,95993.31
2019-02-24T16:26:44.957Z,95985.44
2019-02-24T16:29:14.167Z,95984.44
2019-02-24T16:31:42.984Z,95983.88
2019-02-24T16:34:11.883Z,95987.75
2019-02-24T16:36:40.553Z,95989.77
2019-02-24T16:39:10.966Z,96001.94
2019-02-24T16:41:39.992Z,95995.64
2019-02-24T16:44:08.876Z,95991.11
2019-02-24T16:46:41.728Z,95993.71
2019-02-24T16:49:10.541Z,96001.14
2019-02-24T16:51:39.541Z,96008.49
2019-02-24T16:54:10.196Z,96011.23
2019-02-24T16:56:38.858Z,96015.05
2019-02-24T16:59:07.633Z,96014.70
2019-02-24T17:01:39.725Z,96017.73
2019-02-24T17:04:08.678Z,96018.41
2019-02-24T17:06:37.490Z,96025.69
2019-02-24T17:09:06.987Z,96029.58
2019-02-24T17:11:36.223Z,96018.48
2019-02-24T17:14:05.416Z,96023.55
2019-02-24T17:16:34.402Z,96011.77
2019-02-24T17:19:03.929Z,96000.97
2019-02-24T17:21:32.782Z,96000.95
2019-02-24T17:24:01.608Z,96000.57
2019-02-24T17:26:30.270Z,96003.05
2019-02-24T17:29:02.017Z,96002.83
2019-02-24T17:31:30.730Z,96010.09
2019-02-24T17:34:00.026Z,96016.01
2019-02-24T17:36:29.293Z,96026.94
2019-02-24T17:38:58.292Z,96032.02
2019-02-24T17:41:27.286Z,96042.17
2019-02-24T17:44:00.331Z,96039.39
2019-02-24T17:46:29.702Z,96042.09
2019-02-24T17:48:58.572Z,96048.72
2019-02-24T17:51:27.695Z,96051.09
2019-02-24T17:53:56.550Z,96048.50
2019-02-24T17:56:27.542Z,96050.38
2019-02-24T17:58:58.123Z,96043.83
2019-02-24T18:01:27.228Z,96040.58
2019-02-24T18:03:59.292Z,96044.27
2019-02-24T18:06:28.189Z,96045.61
2019-02-24T18:08:58.422Z,96047.59
2019-02-24T18:11:27.118Z,96049.22
2019-02-24T18:13:57.016Z,96050.59
2019-02-24T18:16:27.501Z,96051.16
2019-02-24T18:18:56.219Z,96057.36
2019-02-24T18:21:25.117Z,96067.63
2019-02-24T18:23:53.913Z,96067.14
2019-02-24T18:26:22.831Z,96067.09
2019-02-24T18:28:51.636Z,96070.70
2019-02-24T18:31:20.648Z,96070.88
2019-02-24T18:33:51.036Z,96077.34
2019-02-24T18:36:21.964Z,96080.67
2019-02-24T18:38:51.445Z,96083.38
2019-02-24T18:41:21.426Z,96077.92
2019-02-24T18:43:53.779Z,96073.84
2019-02-24T18:46:24.728Z,96074.59
2019-02-24T18:48:53.534Z,96075.64
2019-02-24T18:51:22.493Z,96070.47
2019-02-24T18:53:52.974Z,96072.05
2019-02-24T18:56:21.701Z,96069.48
2019-02-24T18:58:50.739Z,96074.17
2019-02-24T19:01:21.597Z,96076.95
2019-02-24T19:03:57.350Z,96080.69
2019-02-24T19:06:21.898Z,96055.44
2019-02-24T19:08:50.633Z,96074.50
2019-02-24T19:11:19.590Z,96071.81
2019-02-24T19:13:49.926Z,96068.91
2019-02-24T19:16:20.743Z,96072.16
2019-02-24T19:18:50.068Z,96076.02
2019-02-24T19:21:21.769Z,96078.00
2019-02-24T19:23:51.143Z,96081.18
2019-02-24T19:26:20.259Z,96087.08
2019-02-24T19:28:49.739Z,96083.48
2019-02-24T19:31:18.758Z,96086.58
2019-02-24T19:33:48.652Z,96085.64
2019-02-24T19:36:17.819Z,96083.26
2019-02-24T19:38:48.691Z,96087.81
2019-02-24T19:41:19.699Z,96085.72
2019-02-24T19:43:49.531Z,96090.26
2019-02-24T19:46:18.966Z,96087.47
2019-02-24T19:48:47.838Z,96091.12
2019-02-24T19:51:16.621Z,96092.87
2019-02-24T19:53:47.901Z,96092.36
2019-02-24T19:56:16.778Z,96095.98
2019-02-24T19:58:48.444Z,96097.77
2019-02-24T20:01:17.682Z,96095.22
2019-02-24T20:03:46.474Z,96093.75
2019-02-24T20:06:15.159Z,96097.79
2019-02-24T20:08:43.949Z,96107.00
2019-02-24T20:11:12.779Z,96099.81
2019-02-24T20:13:42.200Z,96106.58
2019-02-24T20:16:11.390Z,96109.25
2019-02-24T20:18:40.677Z,96115.67
2019-02-24T20:21:09.457Z,96114.47
2019-02-24T20:23:38.425Z,96107.94
2019-02-24T20:26:07.220Z,96110.83
2019-02-24T20:28:40.047Z,96118.54
2019-02-24T20:31:09.044Z,96121.14
2019-02-24T20:33:38.489Z,96120.64
2019-02-24T20:36:08.989Z,96120.68
2019-02-24T20:38:37.940Z,96122.75
2019-02-24T20:41:07.016Z,96124.41
2019-02-24T20:43:36.077Z,96122.16
2019-02-24T20:46:06.397Z,96131.88
2019-02-24T20:48:35.471Z,96135.02
2019-02-24T20:51:04.320Z,96124.03
2019-02-24T20:53:33.106Z,96122.05
2019-02-24T20:56:01.817Z,96128.23
2019-02-24T20:58:30.581Z,96130.24
2019-02-24T21:00:59.552Z,96128.03
2019-02-24T21:03:28.373Z,96130.95
2019-02-24T21:05:57.577Z,96122.91
2019-02-24T21:08:29.648Z,96121.89
2019-02-24T21:11:01.262Z,96126.12
2019-02-24T21:13:31.911Z,96122.67
2019-02-24T21:16:02.238Z,96118.39
2019-02-24T21:18:31.269Z,96112.56
2019-02-24T21:21:00.364Z,96109.62
2019-02-24T21:23:29.120Z,96100.41
2019-02-24T21:25:57.915Z,96100.52
2019-02-24T21:28:26.710Z,96096.78
2019-02-24T21:30:55.390Z,96101.91
2019-02-24T21:33:24.541Z,96104.59
2019-02-24T21:35:53.288Z,96098.30
2019-02-24T21:38:22.167Z,96108.14
2019-02-24T21:40:51.379Z,96114.28
2019-02-24T21:43:20.251Z,96112.30
2019-02-24T21:45:49.239Z,96117.31
2019-02-24T21:48:18.134Z,96117.42
2019-02-24T21:50:47.152Z,96118.98
2019-02-24T21:53:15.818Z,96123.75
2019-02-24T21:55:46.533Z,96126.44
2019-02-24T21:58:15.231Z,96133.63
2019-02-24T22:00:43.921Z,96122.67
2019-02-24T22:03:12.615Z,96126.75
2019-02-24T22:05:41.500Z,96132.81
2019-02-24T22:08:10.293Z,96134.80
2019-02-24T22:10:38.969Z,96127.57
2019-02-24T22:13:07.860Z,96132.93
2019-02-24T22:15:36.532Z,96136.08
2019-02-24T22:18:08.612Z,96129.58
2019-02-24T22:20:38.643Z,96126.91
2019-02-24T22:23:07.321Z,96134.71
2019-02-24T22:25:36.100Z,96135.64
2019-02-24T22:28:06.755Z,96130.98
2019-02-24T22:30:35.935Z,96128.07
2019-02-24T22:33:04.632Z,96132.38
2019-02-24T22:35:33.315Z,96125.16
2019-02-24T22:38:02.102Z,96129.12
2019-02-24T22:40:31.081Z,96128.77
2019-02-24T22:42:59.770Z,96130.28
2019-02-24T22:45:28.597Z,96128.67
2019-02-24T22:47:57.218Z,96130.86
2019-02-24T22:50:26.718Z,96125.97
2019-02-24T22:52:55.655Z,96138.32
2019-02-24T22:55:24.458Z,96129.93
2019-02-24T22:57:53.226Z,96119.80
2019-02-24T23:00:48.019Z,96115.25
2019-02-24T23:03:16.812Z,96121.08
2019-02-24T23:05:45.497Z,96123.52
2019-02-24T23:08:14.396Z,96114.55
2019-02-24T23:10:43.076Z,96108.80
2019-02-24T23:13:11.765Z,96113.15
2019-02-24T23:15:40.549Z,96098.00
2019-02-24T23:18:09.300Z,96089.72
2019-02-24T23:20:38.026Z,96096.66
2019-02-24T23:23:06.650Z,96091.08
2019-02-24T23:25:35.392Z,96087.55
2019-02-24T23:28:04.287Z,96088.67
2019-02-24T23:30:33.348Z,96102.08
2019-02-24T23:33:02.583Z,96096.98
2019-02-24T23:35:31.295Z,96086.26
2019-02-24T23:38:00.567Z,96090.56
2019-02-24T23:40:29.524Z,96086.61
2019-02-24T23:42:58.471Z,96087.30
2019-02-24T23:45:27.344Z,96084.74
2019-02-24T23:47:56.036Z,96083.25
2019-02-24T23:50:24.644Z,96086.97
2019-02-24T23:52:53.397Z,96091.87
2019-02-24T23:55:22.083Z,96095.27
2019-02-24T23:57:50.766Z,96097.47
